createdAt,value
2018-07-06T00:01:31.386Z,12.27
2018-07-06T00:04:11.401Z,12.40
2018-07-06T00:06:51.267Z,11.97
2018-07-06T00:09:30.961Z,12.97
2018-07-06T00:12:10.761Z,12.23
2018-07-06T00:14:50.490Z,13.03
2018-07-06T00:17:30.154Z,13.90
2018-07-06T00:20:09.806Z,13.80
2018-07-06T00:22:49.632Z,13.60
2018-07-06T00:25:29.457Z,13.33
2018-07-06T00:28:09.464Z,14.50
2018-07-06T00:30:49.454Z,13.77
2018-07-06T00:33:29.245Z,14.47
2018-07-06T00:36:08.955Z,15.00
2018-07-06T00:38:48.880Z,14.17
2018-07-06T00:41:28.886Z,14.73
2018-07-06T00:44:08.380Z,14.30
2018-07-06T00:46:48.169Z,13.83
2018-07-06T00:49:27.861Z,14.63
2018-07-06T00:52:07.809Z,14.57
2018-07-06T00:54:47.561Z,14.23
2018-07-06T00:57:27.322Z,15.43
2018-07-06T01:00:07.098Z,14.97
2018-07-06T01:02:46.849Z,14.37
2018-07-06T01:05:26.568Z,14.70
2018-07-06T01:08:06.191Z,14.57
2018-07-06T01:10:45.912Z,14.23
2018-07-06T01:13:25.809Z,14.17
2018-07-06T01:16:05.318Z,14.67
2018-07-06T01:18:45.007Z,13.97
2018-07-06T01:21:24.781Z,13.70
2018-07-06T01:24:04.738Z,13.97
2018-07-06T01:26:44.511Z,14.87
2018-07-06T01:29:24.178Z,14.07
2018-07-06T01:32:03.921Z,13.73
2018-07-06T01:34:43.955Z,14.87
2018-07-06T01:37:23.736Z,14.93
2018-07-06T01:40:03.528Z,13.40
2018-07-06T01:42:43.298Z,13.10
2018-07-06T01:45:23.102Z,13.53
2018-07-06T01:48:02.859Z,13.63
2018-07-06T01:50:42.783Z,14.33
2018-07-06T01:53:22.650Z,15.07
2018-07-06T01:56:02.523Z,14.33
2018-07-06T01:58:42.205Z,14.27
2018-07-06T02:01:22.185Z,13.57
2018-07-06T02:04:01.991Z,14.27
2018-07-06T02:06:41.748Z,13.93
2018-07-06T02:09:21.525Z,14.63
2018-07-06T02:12:01.493Z,13.90
2018-07-06T02:14:41.190Z,13.97
2018-07-06T02:17:21.022Z,13.33
2018-07-06T02:20:00.774Z,18.80
2018-07-06T02:22:40.433Z,16.50
2018-07-06T02:25:20.144Z,15.20
2018-07-06T02:27:59.993Z,12.33
2018-07-06T02:30:39.832Z,11.20
2018-07-06T02:33:19.727Z,12.13
2018-07-06T02:35:59.620Z,11.87
2018-07-06T02:38:39.444Z,11.00
2018-07-06T02:41:19.215Z,11.50
2018-07-06T02:43:58.856Z,11.93
2018-07-06T02:46:38.703Z,11.70
2018-07-06T02:49:18.698Z,11.13
2018-07-06T02:51:58.466Z,11.43
2018-07-06T02:54:38.314Z,11.90
2018-07-06T02:57:18.125Z,12.73
2018-07-06T02:59:57.879Z,12.27
2018-07-06T03:02:37.691Z,12.73
2018-07-06T03:05:17.394Z,12.37
2018-07-06T03:07:57.172Z,12.10
2018-07-06T03:10:36.897Z,12.53
2018-07-06T03:13:16.739Z,11.87
2018-07-06T03:15:56.446Z,12.37
2018-07-06T03:18:36.429Z,12.53
2018-07-06T03:21:16.194Z,12.97
2018-07-06T03:23:55.928Z,11.93
2018-07-06T03:26:35.701Z,11.97
2018-07-06T03:29:15.253Z,12.00
2018-07-06T03:31:55.021Z,12.80
2018-07-06T03:34:34.916Z,13.50
2018-07-06T03:37:14.553Z,13.83
2018-07-06T03:39:54.334Z,14.00
2018-07-06T03:42:34.339Z,12.80
2018-07-06T03:45:14.170Z,13.37
2018-07-06T03:47:53.951Z,12.53
2018-07-06T03:50:33.811Z,11.83
2018-07-06T03:53:13.492Z,13.13
2018-07-06T03:55:53.336Z,13.50
2018-07-06T03:58:33.139Z,12.93
2018-07-06T04:01:12.931Z,13.07
2018-07-06T04:03:52.709Z,14.00
2018-07-06T04:06:32.623Z,12.80
2018-07-06T04:09:12.248Z,12.30
2018-07-06T04:11:52.051Z,14.43
2018-07-06T04:14:31.800Z,13.93
2018-07-06T04:17:11.685Z,15.23
2018-07-06T04:19:51.748Z,15.03
2018-07-06T04:22:31.801Z,14.87
2018-07-06T04:25:11.854Z,15.80
2018-07-06T04:27:51.870Z,14.60
2018-07-06T04:30:31.526Z,15.03
2018-07-06T04:33:11.221Z,14.60
2018-07-06T04:35:50.774Z,14.77
2018-07-06T04:38:30.548Z,13.73
2018-07-06T04:41:10.284Z,14.47
2018-07-06T04:43:50.762Z,13.33
2018-07-06T04:46:30.479Z,14.27
2018-07-06T04:49:10.244Z,15.87
2018-07-06T04:51:50.129Z,14.90
2018-07-06T04:54:29.983Z,15.23
2018-07-06T04:57:09.830Z,14.07
2018-07-06T04:59:49.750Z,13.70
2018-07-06T05:02:29.625Z,14.87
2018-07-06T05:05:09.548Z,13.47
2018-07-06T05:07:49.436Z,10.90
2018-07-06T05:10:29.123Z,10.70
2018-07-06T05:13:08.720Z,11.53
2018-07-06T05:15:48.398Z,11.50
2018-07-06T05:18:28.174Z,11.77
2018-07-06T05:21:07.922Z,10.90
2018-07-06T05:23:47.738Z,11.90
2018-07-06T05:26:27.535Z,10.47
2018-07-06T05:29:07.311Z,10.27
2018-07-06T05:31:47.159Z,10.27
2018-07-06T05:34:26.920Z,10.63
2018-07-06T05:37:06.566Z,11.00
2018-07-06T05:39:46.320Z,11.90
2018-07-06T05:42:26.004Z,11.70
2018-07-06T05:45:05.840Z,10.90
2018-07-06T05:47:45.624Z,11.23
2018-07-06T05:50:25.227Z,11.13
2018-07-06T05:53:04.789Z,11.60
2018-07-06T05:55:44.477Z,12.43
2018-07-06T05:58:24.322Z,11.80
2018-07-06T06:01:03.890Z,10.43
2018-07-06T06:03:43.556Z,10.50
2018-07-06T06:06:23.163Z,9.83
2018-07-06T06:08:50.462Z,9.80
2018-07-06T06:11:19.151Z,8.73
2018-07-06T06:13:47.685Z,8.30
2018-07-06T06:16:16.177Z,7.03
2018-07-06T06:18:45.297Z,6.77
2018-07-06T06:21:13.861Z,6.10
2018-07-06T06:23:42.410Z,6.90
2018-07-06T06:26:10.951Z,6.53
2018-07-06T06:28:39.600Z,5.30
2018-07-06T06:31:08.172Z,3.97
2018-07-06T06:33:36.813Z,4.30
2018-07-06T06:36:05.410Z,3.77
2018-07-06T06:38:33.973Z,3.80
2018-07-06T06:41:02.485Z,3.30
2018-07-06T06:43:31.073Z,2.90
2018-07-06T06:45:59.658Z,3.20
2018-07-06T06:48:28.193Z,3.27
2018-07-06T06:50:56.757Z,3.10
2018-07-06T06:53:25.316Z,2.80
2018-07-06T06:55:53.866Z,3.30
2018-07-06T06:58:22.441Z,2.60
2018-07-06T07:00:51.287Z,2.80
2018-07-06T07:03:19.812Z,2.40
2018-07-06T07:05:48.550Z,2.73
2018-07-06T07:08:17.053Z,3.03
2018-07-06T07:10:45.916Z,3.40
2018-07-06T07:13:14.806Z,3.67
2018-07-06T07:15:43.623Z,3.77
2018-07-06T07:18:12.133Z,4.13
2018-07-06T07:20:40.664Z,4.20
2018-07-06T07:23:09.371Z,4.23
2018-07-06T07:25:38.098Z,4.27
2018-07-06T07:28:06.652Z,3.80
2018-07-06T07:30:35.185Z,4.30
2018-07-06T07:33:03.714Z,4.07
2018-07-06T07:35:34.044Z,4.17
2018-07-06T07:38:02.605Z,4.80
2018-07-06T07:40:31.135Z,4.70
2018-07-06T07:43:03.372Z,4.47
2018-07-06T07:45:31.897Z,4.43
2018-07-06T07:48:00.578Z,4.90
2018-07-06T07:50:29.190Z,6.07
2018-07-06T07:53:08.946Z,5.80
2018-07-06T07:55:37.460Z,6.37
2018-07-06T07:58:06.083Z,7.30
2018-07-06T08:00:34.754Z,7.93
2018-07-06T08:03:03.223Z,9.10
2018-07-06T08:05:31.771Z,9.23
2018-07-06T08:08:00.538Z,10.47
2018-07-06T08:10:30.138Z,10.87
2018-07-06T08:12:59.182Z,11.50
2018-07-06T08:15:27.972Z,11.87
2018-07-06T08:17:56.700Z,12.50
2018-07-06T08:20:25.401Z,12.57
2018-07-06T08:22:54.812Z,12.10
2018-07-06T08:25:23.445Z,12.40
2018-07-06T08:27:52.213Z,11.97
2018-07-06T08:30:21.014Z,11.70
2018-07-06T08:32:56.425Z,10.47
2018-07-06T08:35:36.220Z,11.33
2018-07-06T08:38:06.062Z,10.40
2018-07-06T08:40:34.834Z,10.30
2018-07-06T08:43:04.884Z,11.03
2018-07-06T08:45:34.334Z,11.23
2018-07-06T08:48:02.987Z,11.13
2018-07-06T08:50:31.562Z,9.80
2018-07-06T08:53:00.141Z,10.10
2018-07-06T08:55:29.154Z,9.23
2018-07-06T08:57:58.641Z,7.87
2018-07-06T09:00:27.485Z,8.80
2018-07-06T09:02:56.043Z,8.30
2018-07-06T09:05:24.617Z,9.67
2018-07-06T09:07:53.283Z,9.37
2018-07-06T09:10:21.984Z,9.33
2018-07-06T09:12:50.699Z,9.63
2018-07-06T09:15:19.656Z,8.93
2018-07-06T09:17:48.214Z,9.47
2018-07-06T09:20:16.954Z,9.17
2018-07-06T09:22:45.409Z,9.43
2018-07-06T09:25:14.061Z,9.83
2018-07-06T09:27:42.663Z,9.70
2018-07-06T09:30:11.257Z,9.27
2018-07-06T09:32:39.889Z,9.60
2018-07-06T09:35:08.784Z,12.00
2018-07-06T09:37:37.478Z,12.10
2018-07-06T09:40:06.301Z,11.70
2018-07-06T09:42:35.213Z,12.17
2018-07-06T09:45:04.725Z,11.93
2018-07-06T09:47:34.618Z,12.37
2018-07-06T09:50:03.520Z,11.83
2018-07-06T09:52:32.167Z,12.40
2018-07-06T09:55:00.997Z,12.47
2018-07-06T09:57:29.846Z,12.00
2018-07-06T09:59:58.666Z,13.80
2018-07-06T10:02:27.491Z,13.83
2018-07-06T10:04:56.284Z,13.63
2018-07-06T10:07:25.357Z,13.43
2018-07-06T10:09:54.210Z,12.80
2018-07-06T10:12:23.090Z,13.50
2018-07-06T10:14:51.895Z,12.97
2018-07-06T10:17:20.790Z,13.80
2018-07-06T10:19:49.981Z,12.50
2018-07-06T10:22:18.739Z,12.43
2018-07-06T10:24:47.670Z,12.37
2018-07-06T10:27:16.768Z,12.53
2018-07-06T10:29:58.063Z,12.17
2018-07-06T10:32:29.606Z,11.40
2018-07-06T10:34:59.094Z,10.53
2018-07-06T10:37:28.616Z,10.63
2018-07-06T10:39:58.209Z,11.53
2018-07-06T10:42:27.073Z,11.37
2018-07-06T10:44:56.119Z,11.37
2018-07-06T10:47:24.794Z,12.73
2018-07-06T10:49:53.550Z,13.57
2018-07-06T10:52:22.345Z,13.67
2018-07-06T10:54:51.116Z,12.70
2018-07-06T10:57:19.822Z,13.33
2018-07-06T10:59:48.754Z,13.23
2018-07-06T11:02:17.368Z,15.17
2018-07-06T11:04:46.258Z,14.73
2018-07-06T11:07:15.015Z,14.87
2018-07-06T11:09:43.778Z,14.17
2018-07-06T11:12:12.436Z,15.63
2018-07-06T11:14:41.196Z,15.50
2018-07-06T11:17:09.962Z,16.17
2018-07-06T11:19:38.633Z,15.87
2018-07-06T11:22:07.399Z,16.80
2018-07-06T11:24:37.101Z,18.33
2018-07-06T11:27:05.732Z,17.03
2018-07-06T11:29:35.058Z,18.47
2018-07-06T11:32:04.364Z,16.57
2018-07-06T11:34:33.053Z,15.17
2018-07-06T11:37:01.734Z,14.93
2018-07-06T11:39:30.373Z,14.60
2018-07-06T11:41:59.096Z,15.17
2018-07-06T11:44:27.726Z,13.40
2018-07-06T11:46:56.293Z,13.83
2018-07-06T11:49:24.848Z,13.00
2018-07-06T11:51:53.761Z,12.47
2018-07-06T11:54:22.341Z,12.37
2018-07-06T11:56:51.183Z,12.80
2018-07-06T11:59:19.747Z,12.20
2018-07-06T12:01:48.511Z,12.00
2018-07-06T12:04:17.154Z,12.50
2018-07-06T12:06:45.574Z,12.20
2018-07-06T12:09:14.073Z,11.03
2018-07-06T12:11:42.902Z,11.60
2018-07-06T12:14:11.474Z,11.47
2018-07-06T12:16:40.097Z,11.23
2018-07-06T12:19:08.647Z,10.23
2018-07-06T12:21:37.169Z,9.90
2018-07-06T12:24:05.693Z,10.80
2018-07-06T12:26:34.237Z,9.53
2018-07-06T12:29:02.815Z,9.20
2018-07-06T12:31:31.416Z,8.37
2018-07-06T12:34:00.211Z,7.77
2018-07-06T12:36:28.743Z,7.63
2018-07-06T12:38:57.293Z,7.07
2018-07-06T12:41:25.801Z,6.53
2018-07-06T12:43:54.375Z,6.00
2018-07-06T12:46:22.970Z,6.10
2018-07-06T12:48:51.587Z,5.73
2018-07-06T12:51:20.105Z,6.03
2018-07-06T12:53:48.777Z,5.10
2018-07-06T12:56:17.407Z,4.83
2018-07-06T12:58:46.225Z,4.07
2018-07-06T13:01:14.868Z,4.07
2018-07-06T13:03:43.679Z,3.57
2018-07-06T13:06:12.387Z,2.93
2018-07-06T13:08:41.056Z,2.83
2018-07-06T13:11:09.671Z,3.37
2018-07-06T13:13:38.589Z,2.90
2018-07-06T13:16:07.225Z,2.97
2018-07-06T13:18:36.016Z,3.23
2018-07-06T13:21:04.695Z,3.20
2018-07-06T13:23:33.303Z,2.70
2018-07-06T13:26:01.847Z,3.33
2018-07-06T13:28:30.509Z,3.13
2018-07-06T13:30:59.109Z,3.40
2018-07-06T13:33:27.936Z,3.63
2018-07-06T13:35:56.582Z,3.80
2018-07-06T13:38:25.160Z,3.90
2018-07-06T13:40:54.025Z,4.17
2018-07-06T13:43:22.712Z,4.37
2018-07-06T13:45:51.400Z,4.10
2018-07-06T13:48:20.130Z,3.77
2018-07-06T13:50:48.875Z,4.23
2018-07-06T13:53:17.868Z,4.47
2018-07-06T13:55:46.851Z,4.47
2018-07-06T13:58:16.655Z,4.77
2018-07-06T14:00:45.386Z,4.83
2018-07-06T14:03:14.211Z,4.77
2018-07-06T14:05:42.973Z,4.83
2018-07-06T14:08:11.613Z,5.47
2018-07-06T14:10:40.245Z,4.73
2018-07-06T14:13:08.803Z,4.30
2018-07-06T14:15:37.534Z,4.80
2018-07-06T14:18:06.169Z,4.63
2018-07-06T14:20:34.863Z,4.80
2018-07-06T14:23:03.541Z,4.47
2018-07-06T14:25:32.272Z,5.20
2018-07-06T14:28:00.953Z,4.97
2018-07-06T14:30:29.598Z,5.20
2018-07-06T14:32:58.337Z,5.00
2018-07-06T14:35:27.057Z,6.43
2018-07-06T14:37:55.833Z,4.20
2018-07-06T14:40:24.502Z,4.53
2018-07-06T14:42:53.170Z,4.60
2018-07-06T14:45:21.858Z,6.40
2018-07-06T14:47:50.541Z,4.60
2018-07-06T14:50:19.338Z,5.07
2018-07-06T14:52:48.096Z,4.57
2018-07-06T14:55:17.106Z,4.50
2018-07-06T14:57:45.852Z,4.83
2018-07-06T15:00:14.535Z,4.93
2018-07-06T15:02:43.442Z,4.20
2018-07-06T15:05:12.162Z,3.70
2018-07-06T15:07:41.198Z,3.53
2018-07-06T15:10:10.527Z,3.63
2018-07-06T15:12:39.262Z,3.33
2018-07-06T15:15:08.227Z,3.70
2018-07-06T15:17:37.496Z,3.77
2018-07-06T15:20:06.307Z,3.93
2018-07-06T15:22:35.037Z,3.70
2018-07-06T15:25:04.253Z,3.67
2018-07-06T15:27:33.163Z,3.80
2018-07-06T15:30:01.973Z,3.90
2018-07-06T15:32:30.854Z,3.90
2018-07-06T15:34:59.750Z,3.63
2018-07-06T15:37:28.415Z,3.33
2018-07-06T15:39:57.172Z,3.67
2018-07-06T15:42:25.793Z,3.20
2018-07-06T15:44:54.483Z,3.90
2018-07-06T15:47:23.176Z,4.37
2018-07-06T15:49:52.017Z,4.23
2018-07-06T15:52:20.883Z,4.90
2018-07-06T15:54:49.771Z,5.30
2018-07-06T15:57:18.700Z,5.07
2018-07-06T15:59:47.601Z,5.10
2018-07-06T16:02:16.426Z,5.20
2018-07-06T16:04:45.171Z,6.83
2018-07-06T16:07:13.949Z,7.97
2018-07-06T16:09:42.652Z,8.30
2018-07-06T16:12:11.484Z,7.00
2018-07-06T16:14:40.207Z,6.60
2018-07-06T16:17:08.850Z,6.13
2018-07-06T16:19:37.463Z,6.53
2018-07-06T16:22:06.989Z,6.90
2018-07-06T16:24:35.801Z,6.37
2018-07-06T16:27:04.581Z,7.20
2018-07-06T16:29:33.353Z,6.80
2018-07-06T16:32:01.997Z,7.23
2018-07-06T16:34:30.688Z,7.13
2018-07-06T16:36:59.375Z,7.97
2018-07-06T16:39:28.100Z,7.70
2018-07-06T16:41:56.880Z,7.17
2018-07-06T16:44:25.719Z,7.33
2018-07-06T16:46:54.414Z,7.40
2018-07-06T16:49:23.009Z,6.93
2018-07-06T16:51:51.606Z,7.00
2018-07-06T16:54:20.206Z,6.57
2018-07-06T16:56:48.927Z,6.30
2018-07-06T16:59:17.532Z,6.63
2018-07-06T17:01:46.175Z,6.53
2018-07-06T17:04:14.754Z,6.50
2018-07-06T17:06:43.607Z,6.63
2018-07-06T17:09:12.233Z,6.43
2018-07-06T17:11:40.899Z,6.60
2018-07-06T17:14:09.639Z,6.20
2018-07-06T17:16:38.479Z,5.83
2018-07-06T17:19:07.257Z,6.07
2018-07-06T17:21:35.926Z,5.87
2018-07-06T17:24:04.918Z,6.03
2018-07-06T17:26:33.622Z,6.70
2018-07-06T17:29:02.460Z,6.63
2018-07-06T17:31:31.189Z,6.03
2018-07-06T17:33:59.993Z,5.67
2018-07-06T17:36:28.729Z,5.77
2018-07-06T17:38:57.397Z,5.50
2018-07-06T17:41:26.155Z,5.27
2018-07-06T17:43:55.069Z,5.13
2018-07-06T17:46:23.712Z,4.80
2018-07-06T17:48:52.802Z,4.70
2018-07-06T17:51:21.645Z,4.30
2018-07-06T17:53:50.398Z,4.43
2018-07-06T17:56:19.304Z,4.50
2018-07-06T17:58:48.045Z,4.97
2018-07-06T18:01:17.158Z,4.80
2018-07-06T18:03:46.093Z,4.83
2018-07-06T18:06:14.874Z,5.27
2018-07-06T18:08:43.636Z,5.23
2018-07-06T18:11:12.512Z,5.53
2018-07-06T18:13:41.274Z,5.20
2018-07-06T18:16:10.149Z,5.20
2018-07-06T18:18:39.002Z,5.37
2018-07-06T18:21:07.900Z,5.90
2018-07-06T18:23:36.749Z,5.63
2018-07-06T18:26:09.440Z,5.63
2018-07-06T18:28:38.165Z,5.63
2018-07-06T18:31:06.881Z,5.50
2018-07-06T18:33:35.653Z,5.57
2018-07-06T18:36:04.398Z,5.40
2018-07-06T18:38:33.122Z,5.57
2018-07-06T18:41:01.922Z,6.10
2018-07-06T18:43:30.631Z,6.13
2018-07-06T18:45:59.441Z,5.40
2018-07-06T18:48:28.205Z,5.30
2018-07-06T18:50:56.800Z,5.20
2018-07-06T18:53:25.413Z,5.13
2018-07-06T18:55:54.178Z,4.67
2018-07-06T18:58:22.831Z,5.30
2018-07-06T19:00:51.451Z,5.33
2018-07-06T19:03:20.282Z,5.47
2018-07-06T19:05:48.933Z,5.53
2018-07-06T19:08:17.818Z,5.10
2018-07-06T19:10:46.665Z,6.93
2018-07-06T19:13:15.373Z,5.37
2018-07-06T19:15:44.277Z,5.80
2018-07-06T19:18:13.162Z,5.60
2018-07-06T19:20:42.165Z,4.20
2018-07-06T19:23:10.946Z,4.10
2018-07-06T19:25:46.621Z,4.10
2018-07-06T19:28:15.241Z,6.30
2018-07-06T19:30:43.875Z,4.43
2018-07-06T19:33:12.623Z,4.40
2018-07-06T19:35:41.398Z,4.73
2018-07-06T19:38:10.038Z,4.30
2018-07-06T19:40:38.913Z,4.13
2018-07-06T19:43:08.580Z,4.87
2018-07-06T19:51:27.749Z,8.70
2018-07-06T19:53:57.404Z,8.13
2018-07-06T19:56:27.383Z,8.90
2018-07-06T19:58:57.559Z,8.50
2018-07-06T20:01:26.578Z,7.97
2018-07-06T20:03:55.483Z,9.70
2018-07-06T20:06:24.772Z,10.37
2018-07-06T20:08:53.592Z,11.53
2018-07-06T20:11:22.504Z,13.07
2018-07-06T20:13:51.446Z,12.87
2018-07-06T20:16:20.146Z,13.80
2018-07-06T20:18:48.953Z,13.83
2018-07-06T20:21:17.946Z,12.77
2018-07-06T20:23:46.940Z,13.57
2018-07-06T20:26:15.741Z,14.80
2018-07-06T20:28:44.426Z,12.93
2018-07-06T20:31:13.135Z,14.40
2018-07-06T20:33:41.911Z,14.23
2018-07-06T20:36:10.553Z,13.67
2018-07-06T20:38:39.240Z,13.33
2018-07-06T20:41:09.350Z,14.10
2018-07-06T20:43:38.041Z,14.77
2018-07-06T20:46:07.318Z,14.77
2018-07-06T20:48:36.188Z,14.17
2018-07-06T20:51:04.957Z,15.73
2018-07-06T20:53:36.273Z,14.63
2018-07-06T20:56:04.916Z,14.60
2018-07-06T20:58:35.904Z,13.80
2018-07-06T21:01:04.518Z,14.43
2018-07-06T21:03:33.251Z,13.47
2018-07-06T21:06:02.835Z,13.63
2018-07-06T21:08:31.802Z,13.73
2018-07-06T21:11:00.474Z,13.53
2018-07-06T21:13:29.137Z,13.63
2018-07-06T21:15:58.807Z,14.57
2018-07-06T21:18:30.473Z,15.70
2018-07-06T21:20:59.336Z,14.67
2018-07-06T21:23:28.017Z,13.87
2018-07-06T21:25:56.700Z,13.93
2018-07-06T21:28:25.535Z,14.83
2018-07-06T21:30:54.228Z,14.73
2018-07-06T21:33:22.889Z,14.77
2018-07-06T21:35:51.664Z,14.60
2018-07-06T21:38:20.673Z,14.20
2018-07-06T21:40:49.428Z,13.93
2018-07-06T21:43:19.639Z,15.13
2018-07-06T21:45:51.259Z,14.70
2018-07-06T21:48:19.947Z,13.20
2018-07-06T21:50:48.865Z,14.77
2018-07-06T21:53:17.630Z,15.10
2018-07-06T21:55:46.338Z,14.30
2018-07-06T21:58:15.066Z,15.20
2018-07-06T22:00:45.095Z,15.03
2018-07-06T22:03:13.874Z,14.93
2018-07-06T22:05:43.063Z,16.33
2018-07-06T22:08:14.175Z,14.67
2018-07-06T22:10:42.917Z,15.07
2018-07-06T22:13:11.690Z,16.07
2018-07-06T22:15:46.496Z,14.40
2018-07-06T22:18:17.096Z,15.53
2018-07-06T22:20:46.696Z,15.67
2018-07-06T22:23:16.029Z,15.47
2018-07-06T22:25:44.779Z,15.83
2018-07-06T22:28:13.453Z,15.57
2018-07-06T22:30:42.221Z,15.93
2018-07-06T22:33:12.148Z,15.83
2018-07-06T22:35:40.824Z,15.47
2018-07-06T22:38:16.276Z,15.40
2018-07-06T22:40:45.125Z,14.80
2018-07-06T22:43:13.917Z,14.97
2018-07-06T22:45:42.661Z,14.50
2018-07-06T22:48:11.441Z,13.83
2018-07-06T22:50:40.116Z,14.00
2018-07-06T22:53:08.719Z,14.50
2018-07-06T22:55:37.492Z,13.57
2018-07-06T22:58:06.403Z,13.57
2018-07-06T23:00:35.135Z,13.30
2018-07-06T23:03:05.393Z,14.07
2018-07-06T23:05:34.093Z,13.97
2018-07-06T23:08:03.007Z,13.67
2018-07-06T23:10:31.653Z,14.13
2018-07-06T23:13:00.349Z,15.47
2018-07-06T23:15:29.305Z,14.23
2018-07-06T23:17:57.979Z,14.50
2018-07-06T23:20:26.791Z,15.30
2018-07-06T23:23:03.612Z,15.50
2018-07-06T23:25:33.981Z,15.73
2018-07-06T23:28:02.891Z,16.03
2018-07-06T23:30:31.713Z,15.37
2018-07-06T23:33:01.313Z,15.50
2018-07-06T23:35:30.142Z,16.27
2018-07-06T23:37:58.962Z,15.57
2018-07-06T23:40:27.636Z,16.67
2018-07-06T23:42:56.353Z,15.93
2018-07-06T23:45:25.338Z,16.87
2018-07-06T23:47:54.351Z,16.07
2018-07-06T23:50:23.693Z,15.80
2018-07-06T23:52:52.493Z,15.73
2018-07-06T23:55:21.357Z,15.77
2018-07-06T23:57:50.562Z,16.53
